sensor_id;sensor_type;location;lat;lon;timestamp;P1;durP1;ratioP1;P2;durP2;ratioP2
51006;SDS011;37034;47.886;-3.904;2024-03-22T00:04:16;30.67;;;22.23;;
51006;SDS011;37034;47.886;-3.904;2024-03-22T00:06:42;32.22;;;22.52;;
51006;SDS011;37034;47.886;-3.904;2024-03-22T00:09:10;35.95;;;23.60;;
51006;SDS011;37034;47.886;-3.904;2024-03-22T00:11:36;43.25;;;26.88;;
51006;SDS011;37034;47.886;-3.904;2024-03-22T00:14:04;34.25;;;22.60;;
51006;SDS011;37034;47.886;-3.904;2024-03-22T00:16:30;29.17;;;21.05;;
51006;SDS011;37034;47.886;-3.904;2024-03-22T00:18:56;51.50;;;26.50;;
51006;SDS011;37034;47.886;-3.904;2024-03-22T00:21:22;36.90;;;25.07;;
51006;SDS011;37034;47.886;-3.904;2024-03-22T00:23:48;33.70;;;23.27;;
51006;SDS011;37034;47.886;-3.904;2024-03-22T00:26:14;33.55;;;23.25;;
51006;SDS011;37034;47.886;-3.904;2024-03-22T00:28:40;31.30;;;20.58;;
51006;SDS011;37034;47.886;-3.904;2024-03-22T00:31:07;32.58;;;23.50;;
51006;SDS011;37034;47.886;-3.904;2024-03-22T00:33:33;32.53;;;22.52;;
51006;SDS011;37034;47.886;-3.904;2024-03-22T00:35:59;21.37;;;14.93;;
51006;SDS011;37034;47.886;-3.904;2024-03-22T00:38:24;44.10;;;22.70;;
51006;SDS011;37034;47.886;-3.904;2024-03-22T00:40:50;29.33;;;20.73;;
51006;SDS011;37034;47.886;-3.904;2024-03-22T00:43:16;45.45;;;24.20;;
51006;SDS011;37034;47.886;-3.904;2024-03-22T00:45:42;38.57;;;22.17;;
51006;SDS011;37034;47.886;-3.904;2024-03-22T00:48:07;34.43;;;22.27;;
51006;SDS011;37034;47.886;-3.904;2024-03-22T00:50:33;27.87;;;21.00;;
51006;SDS011;37034;47.886;-3.904;2024-03-22T00:52:59;29.05;;;20.83;;
51006;SDS011;37034;47.886;-3.904;2024-03-22T00:55:25;29.02;;;20.88;;
51006;SDS011;37034;47.886;-3.904;2024-03-22T00:57:51;35.97;;;21.05;;
51006;SDS011;37034;47.886;-3.904;2024-03-22T01:00:16;33.40;;;21.92;;
51006;SDS011;37034;47.886;-3.904;2024-03-22T01:02:42;35.67;;;21.52;;
51006;SDS011;37034;47.886;-3.904;2024-03-22T01:05:08;31.85;;;21.30;;
51006;SDS011;37034;47.886;-3.904;2024-03-22T01:07:35;33.80;;;22.67;;
51006;SDS011;37034;47.886;-3.904;2024-03-22T01:10:01;29.00;;;22.02;;
51006;SDS011;37034;47.886;-3.904;2024-03-22T01:12:27;43.57;;;20.40;;
51006;SDS011;37034;47.886;-3.904;2024-03-22T01:14:53;55.60;;;22.27;;
51006;SDS011;37034;47.886;-3.904;2024-03-22T01:19:44;32.03;;;21.35;;
51006;SDS011;37034;47.886;-3.904;2024-03-22T01:22:10;27.90;;;20.40;;
51006;SDS011;37034;47.886;-3.904;2024-03-22T01:24:36;250.37;;;26.17;;
51006;SDS011;37034;47.886;-3.904;2024-03-22T01:27:01;69.63;;;22.30;;
51006;SDS011;37034;47.886;-3.904;2024-03-22T01:29:27;35.22;;;22.00;;
51006;SDS011;37034;47.886;-3.904;2024-03-22T01:31:57;33.08;;;23.08;;
51006;SDS011;37034;47.886;-3.904;2024-03-22T01:34:23;32.50;;;21.05;;
51006;SDS011;37034;47.886;-3.904;2024-03-22T01:36:48;79.30;;;21.13;;
51006;SDS011;37034;47.886;-3.904;2024-03-22T01:39:14;161.90;;;24.02;;
51006;SDS011;37034;47.886;-3.904;2024-03-22T01:41:41;42.97;;;23.35;;
51006;SDS011;37034;47.886;-3.904;2024-03-22T01:44:06;89.27;;;21.27;;
51006;SDS011;37034;47.886;-3.904;2024-03-22T01:46:32;34.30;;;21.33;;
51006;SDS011;37034;47.886;-3.904;2024-03-22T01:48:57;124.77;;;22.20;;
51006;SDS011;37034;47.886;-3.904;2024-03-22T01:51:24;88.65;;;21.38;;
51006;SDS011;37034;47.886;-3.904;2024-03-22T01:53:49;25.10;;;18.97;;
51006;SDS011;37034;47.886;-3.904;2024-03-22T01:56:17;82.85;;;23.65;;
51006;SDS011;37034;47.886;-3.904;2024-03-22T01:58:43;26.60;;;18.33;;
51006;SDS011;37034;47.886;-3.904;2024-03-22T02:01:09;119.78;;;20.88;;
51006;SDS011;37034;47.886;-3.904;2024-03-22T02:03:35;104.37;;;20.50;;
51006;SDS011;37034;47.886;-3.904;2024-03-22T02:06:00;53.63;;;17.87;;
51006;SDS011;37034;47.886;-3.904;2024-03-22T02:08:26;58.23;;;19.93;;
51006;SDS011;37034;47.886;-3.904;2024-03-22T02:10:51;142.03;;;24.87;;
51006;SDS011;37034;47.886;-3.904;2024-03-22T02:13:17;34.08;;;19.20;;
51006;SDS011;37034;47.886;-3.904;2024-03-22T02:15:43;34.53;;;17.30;;
51006;SDS011;37034;47.886;-3.904;2024-03-22T02:18:09;25.63;;;16.73;;
51006;SDS011;37034;47.886;-3.904;2024-03-22T02:20:34;22.60;;;17.02;;
51006;SDS011;37034;47.886;-3.904;2024-03-22T02:23:00;23.80;;;18.73;;
51006;SDS011;37034;47.886;-3.904;2024-03-22T02:25:26;36.80;;;19.90;;
51006;SDS011;37034;47.886;-3.904;2024-03-22T02:27:51;26.10;;;18.57;;
51006;SDS011;37034;47.886;-3.904;2024-03-22T02:30:17;60.50;;;20.50;;
51006;SDS011;37034;47.886;-3.904;2024-03-22T02:32:43;39.17;;;19.02;;
51006;SDS011;37034;47.886;-3.904;2024-03-22T02:35:08;22.93;;;16.90;;
51006;SDS011;37034;47.886;-3.904;2024-03-22T02:37:34;25.85;;;18.38;;
51006;SDS011;37034;47.886;-3.904;2024-03-22T02:40:00;29.03;;;18.00;;
51006;SDS011;37034;47.886;-3.904;2024-03-22T02:42:25;22.10;;;17.23;;
51006;SDS011;37034;47.886;-3.904;2024-03-22T02:44:51;26.53;;;18.10;;
51006;SDS011;37034;47.886;-3.904;2024-03-22T02:47:17;26.15;;;18.15;;
51006;SDS011;37034;47.886;-3.904;2024-03-22T02:49:43;76.10;;;21.03;;
51006;SDS011;37034;47.886;-3.904;2024-03-22T02:52:09;28.08;;;18.50;;
51006;SDS011;37034;47.886;-3.904;2024-03-22T02:54:34;24.80;;;17.90;;
51006;SDS011;37034;47.886;-3.904;2024-03-22T02:57:00;25.37;;;16.03;;
51006;SDS011;37034;47.886;-3.904;2024-03-22T02:59:27;21.33;;;15.48;;
51006;SDS011;37034;47.886;-3.904;2024-03-22T03:01:53;27.52;;;13.88;;
51006;SDS011;37034;47.886;-3.904;2024-03-22T03:04:18;20.90;;;11.93;;
51006;SDS011;37034;47.886;-3.904;2024-03-22T03:06:44;20.97;;;13.30;;
51006;SDS011;37034;47.886;-3.904;2024-03-22T03:09:12;25.20;;;13.93;;
51006;SDS011;37034;47.886;-3.904;2024-03-22T03:11:38;17.03;;;11.93;;
51006;SDS011;37034;47.886;-3.904;2024-03-22T03:14:04;16.88;;;12.18;;
51006;SDS011;37034;47.886;-3.904;2024-03-22T03:16:30;14.43;;;10.98;;
51006;SDS011;37034;47.886;-3.904;2024-03-22T03:18:56;16.70;;;11.80;;
51006;SDS011;37034;47.886;-3.904;2024-03-22T03:21:21;18.60;;;12.03;;
51006;SDS011;37034;47.886;-3.904;2024-03-22T03:23:47;15.90;;;9.43;;
51006;SDS011;37034;47.886;-3.904;2024-03-22T03:26:13;15.53;;;11.63;;
51006;SDS011;37034;47.886;-3.904;2024-03-22T03:28:38;13.23;;;11.13;;
51006;SDS011;37034;47.886;-3.904;2024-03-22T03:31:04;16.83;;;11.43;;
51006;SDS011;37034;47.886;-3.904;2024-03-22T03:33:30;16.43;;;11.43;;
51006;SDS011;37034;47.886;-3.904;2024-03-22T03:35:56;15.23;;;12.20;;
51006;SDS011;37034;47.886;-3.904;2024-03-22T03:38:21;14.80;;;10.80;;
51006;SDS011;37034;47.886;-3.904;2024-03-22T03:40:47;17.77;;;12.23;;
51006;SDS011;37034;47.886;-3.904;2024-03-22T03:43:13;18.85;;;12.52;;
51006;SDS011;37034;47.886;-3.904;2024-03-22T03:45:39;16.25;;;12.77;;
51006;SDS011;37034;47.886;-3.904;2024-03-22T03:48:05;19.07;;;12.47;;
51006;SDS011;37034;47.886;-3.904;2024-03-22T03:50:30;16.20;;;11.18;;
51006;SDS011;37034;47.886;-3.904;2024-03-22T03:52:56;16.03;;;11.40;;
51006;SDS011;37034;47.886;-3.904;2024-03-22T03:55:22;19.30;;;12.57;;
51006;SDS011;37034;47.886;-3.904;2024-03-22T03:57:49;17.40;;;11.20;;
51006;SDS011;37034;47.886;-3.904;2024-03-22T04:00:15;13.07;;;9.93;;
51006;SDS011;37034;47.886;-3.904;2024-03-22T04:02:41;16.15;;;10.18;;
51006;SDS011;37034;47.886;-3.904;2024-03-22T04:05:07;14.37;;;9.17;;
51006;SDS011;37034;47.886;-3.904;2024-03-22T04:07:33;15.52;;;10.43;;
51006;SDS011;37034;47.886;-3.904;2024-03-22T04:09:58;16.80;;;10.40;;
51006;SDS011;37034;47.886;-3.904;2024-03-22T04:12:25;15.05;;;9.73;;
51006;SDS011;37034;47.886;-3.904;2024-03-22T04:14:51;16.48;;;9.98;;
51006;SDS011;37034;47.886;-3.904;2024-03-22T04:17:17;13.13;;;9.50;;
51006;SDS011;37034;47.886;-3.904;2024-03-22T04:19:43;13.63;;;8.73;;
51006;SDS011;37034;47.886;-3.904;2024-03-22T04:22:09;15.40;;;9.53;;
51006;SDS011;37034;47.886;-3.904;2024-03-22T04:24:34;13.77;;;9.40;;
51006;SDS011;37034;47.886;-3.904;2024-03-22T04:27:00;15.13;;;8.87;;
51006;SDS011;37034;47.886;-3.904;2024-03-22T04:29:26;17.40;;;10.03;;
51006;SDS011;37034;47.886;-3.904;2024-03-22T04:31:51;12.47;;;9.50;;
51006;SDS011;37034;47.886;-3.904;2024-03-22T04:34:17;13.13;;;8.90;;
51006;SDS011;37034;47.886;-3.904;2024-03-22T04:36:42;13.20;;;8.03;;
51006;SDS011;37034;47.886;-3.904;2024-03-22T04:39:08;13.60;;;8.25;;
51006;SDS011;37034;47.886;-3.904;2024-03-22T04:41:35;13.35;;;8.70;;
51006;SDS011;37034;47.886;-3.904;2024-03-22T04:44:00;13.07;;;7.45;;
51006;SDS011;37034;47.886;-3.904;2024-03-22T04:46:26;16.37;;;9.33;;
51006;SDS011;37034;47.886;-3.904;2024-03-22T04:48:52;11.98;;;8.20;;
51006;SDS011;37034;47.886;-3.904;2024-03-22T04:51:17;14.20;;;8.03;;
51006;SDS011;37034;47.886;-3.904;2024-03-22T04:53:43;15.40;;;8.83;;
51006;SDS011;37034;47.886;-3.904;2024-03-22T04:56:09;15.52;;;8.00;;
51006;SDS011;37034;47.886;-3.904;2024-03-22T04:58:35;11.97;;;8.23;;
51006;SDS011;37034;47.886;-3.904;2024-03-22T05:01:00;18.50;;;9.17;;
51006;SDS011;37034;47.886;-3.904;2024-03-22T05:03:26;13.83;;;7.77;;
51006;SDS011;37034;47.886;-3.904;2024-03-22T05:05:52;14.90;;;9.20;;
51006;SDS011;37034;47.886;-3.904;2024-03-22T05:10:44;11.38;;;7.57;;
51006;SDS011;37034;47.886;-3.904;2024-03-22T05:13:10;10.00;;;6.60;;
51006;SDS011;37034;47.886;-3.904;2024-03-22T05:15:35;12.43;;;6.93;;
51006;SDS011;37034;47.886;-3.904;2024-03-22T05:18:01;12.50;;;7.20;;
51006;SDS011;37034;47.886;-3.904;2024-03-22T05:20:26;12.73;;;7.57;;
51006;SDS011;37034;47.886;-3.904;2024-03-22T05:22:52;15.60;;;7.37;;
51006;SDS011;37034;47.886;-3.904;2024-03-22T05:25:18;15.13;;;6.60;;
51006;SDS011;37034;47.886;-3.904;2024-03-22T05:27:44;10.85;;;6.45;;
51006;SDS011;37034;47.886;-3.904;2024-03-22T05:30:10;14.13;;;6.93;;
51006;SDS011;37034;47.886;-3.904;2024-03-22T05:35:02;9.40;;;5.70;;
51006;SDS011;37034;47.886;-3.904;2024-03-22T05:37:27;12.38;;;6.30;;
51006;SDS011;37034;47.886;-3.904;2024-03-22T05:39:53;12.40;;;5.63;;
51006;SDS011;37034;47.886;-3.904;2024-03-22T05:42:19;10.13;;;5.22;;
51006;SDS011;37034;47.886;-3.904;2024-03-22T05:44:45;9.30;;;5.10;;
51006;SDS011;37034;47.886;-3.904;2024-03-22T05:47:11;8.27;;;4.03;;
51006;SDS011;37034;47.886;-3.904;2024-03-22T05:49:37;5.40;;;3.60;;
51006;SDS011;37034;47.886;-3.904;2024-03-22T05:52:02;8.68;;;4.03;;
51006;SDS011;37034;47.886;-3.904;2024-03-22T05:54:28;10.00;;;4.10;;
51006;SDS011;37034;47.886;-3.904;2024-03-22T05:56:54;8.67;;;4.93;;
51006;SDS011;37034;47.886;-3.904;2024-03-22T05:59:20;6.45;;;3.60;;
51006;SDS011;37034;47.886;-3.904;2024-03-22T06:01:46;8.20;;;3.80;;
51006;SDS011;37034;47.886;-3.904;2024-03-22T06:04:12;8.93;;;4.50;;
51006;SDS011;37034;47.886;-3.904;2024-03-22T06:06:38;6.80;;;3.67;;
51006;SDS011;37034;47.886;-3.904;2024-03-22T06:09:03;9.07;;;3.80;;
51006;SDS011;37034;47.886;-3.904;2024-03-22T06:11:33;11.10;;;4.07;;
51006;SDS011;37034;47.886;-3.904;2024-03-22T06:13:59;7.40;;;4.13;;
51006;SDS011;37034;47.886;-3.904;2024-03-22T06:16:24;12.60;;;4.13;;
51006;SDS011;37034;47.886;-3.904;2024-03-22T06:18:50;6.32;;;3.50;;
51006;SDS011;37034;47.886;-3.904;2024-03-22T06:21:16;6.87;;;3.70;;
51006;SDS011;37034;47.886;-3.904;2024-03-22T06:23:48;7.10;;;3.28;;
51006;SDS011;37034;47.886;-3.904;2024-03-22T06:26:14;11.65;;;4.05;;
51006;SDS011;37034;47.886;-3.904;2024-03-22T06:28:40;7.70;;;3.60;;
51006;SDS011;37034;47.886;-3.904;2024-03-22T06:31:05;8.87;;;4.47;;
51006;SDS011;37034;47.886;-3.904;2024-03-22T06:33:31;14.50;;;4.40;;
51006;SDS011;37034;47.886;-3.904;2024-03-22T06:35:57;8.10;;;4.00;;
51006;SDS011;37034;47.886;-3.904;2024-03-22T06:38:22;7.73;;;3.13;;
51006;SDS011;37034;47.886;-3.904;2024-03-22T06:40:48;7.73;;;3.53;;
51006;SDS011;37034;47.886;-3.904;2024-03-22T06:43:13;9.57;;;3.40;;
51006;SDS011;37034;47.886;-3.904;2024-03-22T06:45:39;7.00;;;3.27;;
51006;SDS011;37034;47.886;-3.904;2024-03-22T06:48:05;8.67;;;3.37;;
51006;SDS011;37034;47.886;-3.904;2024-03-22T06:50:30;6.28;;;2.80;;
51006;SDS011;37034;47.886;-3.904;2024-03-22T06:52:56;10.53;;;2.70;;
51006;SDS011;37034;47.886;-3.904;2024-03-22T06:55:22;8.60;;;2.90;;
51006;SDS011;37034;47.886;-3.904;2024-03-22T06:57:48;10.48;;;3.42;;
51006;SDS011;37034;47.886;-3.904;2024-03-22T07:00:15;10.55;;;3.60;;
51006;SDS011;37034;47.886;-3.904;2024-03-22T07:02:41;5.50;;;2.45;;
51006;SDS011;37034;47.886;-3.904;2024-03-22T07:05:07;8.43;;;3.10;;
51006;SDS011;37034;47.886;-3.904;2024-03-22T07:07:34;9.95;;;2.33;;
51006;SDS011;37034;47.886;-3.904;2024-03-22T07:12:26;8.52;;;2.22;;
51006;SDS011;37034;47.886;-3.904;2024-03-22T07:14:52;7.25;;;2.30;;
51006;SDS011;37034;47.886;-3.904;2024-03-22T07:17:18;3.77;;;2.03;;
51006;SDS011;37034;47.886;-3.904;2024-03-22T07:19:48;5.30;;;2.17;;
51006;SDS011;37034;47.886;-3.904;2024-03-22T07:22:16;5.85;;;2.40;;
51006;SDS011;37034;47.886;-3.904;2024-03-22T07:24:41;8.27;;;2.90;;
51006;SDS011;37034;47.886;-3.904;2024-03-22T07:27:07;6.30;;;2.10;;
51006;SDS011;37034;47.886;-3.904;2024-03-22T07:29:33;8.40;;;2.38;;
51006;SDS011;37034;47.886;-3.904;2024-03-22T07:31:58;9.03;;;2.10;;
51006;SDS011;37034;47.886;-3.904;2024-03-22T07:34:24;6.33;;;2.93;;
51006;SDS011;37034;47.886;-3.904;2024-03-22T07:36:50;6.97;;;2.80;;
51006;SDS011;37034;47.886;-3.904;2024-03-22T07:39:15;6.70;;;2.80;;
51006;SDS011;37034;47.886;-3.904;2024-03-22T07:41:41;8.97;;;3.60;;
51006;SDS011;37034;47.886;-3.904;2024-03-22T07:44:06;7.57;;;2.63;;
51006;SDS011;37034;47.886;-3.904;2024-03-22T07:46:32;9.05;;;3.33;;
51006;SDS011;37034;47.886;-3.904;2024-03-22T07:48:58;10.57;;;4.67;;
51006;SDS011;37034;47.886;-3.904;2024-03-22T07:51:24;10.82;;;4.07;;
51006;SDS011;37034;47.886;-3.904;2024-03-22T07:53:50;11.33;;;4.40;;
51006;SDS011;37034;47.886;-3.904;2024-03-22T07:56:17;8.23;;;2.75;;
51006;SDS011;37034;47.886;-3.904;2024-03-22T07:58:42;7.38;;;2.85;;
51006;SDS011;37034;47.886;-3.904;2024-03-22T08:01:08;9.77;;;3.30;;
51006;SDS011;37034;47.886;-3.904;2024-03-22T08:03:34;6.47;;;2.72;;
51006;SDS011;37034;47.886;-3.904;2024-03-22T08:06:00;7.40;;;3.40;;
51006;SDS011;37034;47.886;-3.904;2024-03-22T08:08:25;8.77;;;3.03;;
51006;SDS011;37034;47.886;-3.904;2024-03-22T08:10:51;6.13;;;3.20;;
51006;SDS011;37034;47.886;-3.904;2024-03-22T08:13:16;6.27;;;3.37;;
51006;SDS011;37034;47.886;-3.904;2024-03-22T08:15:42;7.13;;;3.17;;
51006;SDS011;37034;47.886;-3.904;2024-03-22T08:18:10;6.43;;;3.35;;
51006;SDS011;37034;47.886;-3.904;2024-03-22T08:20:36;9.63;;;3.92;;
51006;SDS011;37034;47.886;-3.904;2024-03-22T08:23:04;10.95;;;4.15;;
51006;SDS011;37034;47.886;-3.904;2024-03-22T08:25:30;8.60;;;3.55;;
51006;SDS011;37034;47.886;-3.904;2024-03-22T08:27:55;8.63;;;4.23;;
51006;SDS011;37034;47.886;-3.904;2024-03-22T08:30:21;9.15;;;3.78;;
51006;SDS011;37034;47.886;-3.904;2024-03-22T08:32:47;6.28;;;3.55;;
51006;SDS011;37034;47.886;-3.904;2024-03-22T08:35:13;9.93;;;3.87;;
51006;SDS011;37034;47.886;-3.904;2024-03-22T08:37:39;24.17;;;4.70;;
51006;SDS011;37034;47.886;-3.904;2024-03-22T08:40:05;14.83;;;3.50;;
51006;SDS011;37034;47.886;-3.904;2024-03-22T08:42:31;8.30;;;3.15;;
51006;SDS011;37034;47.886;-3.904;2024-03-22T08:44:57;10.70;;;3.50;;
51006;SDS011;37034;47.886;-3.904;2024-03-22T08:47:23;8.90;;;3.27;;
51006;SDS011;37034;47.886;-3.904;2024-03-22T08:49:48;7.03;;;2.70;;
51006;SDS011;37034;47.886;-3.904;2024-03-22T08:52:14;4.35;;;2.35;;
51006;SDS011;37034;47.886;-3.904;2024-03-22T08:54:40;7.53;;;2.60;;
51006;SDS011;37034;47.886;-3.904;2024-03-22T08:57:06;3.93;;;2.03;;
51006;SDS011;37034;47.886;-3.904;2024-03-22T08:59:31;7.53;;;2.00;;
51006;SDS011;37034;47.886;-3.904;2024-03-22T09:01:57;5.53;;;2.78;;
51006;SDS011;37034;47.886;-3.904;2024-03-22T09:04:24;4.22;;;2.10;;
51006;SDS011;37034;47.886;-3.904;2024-03-22T09:06:50;10.13;;;2.92;;
51006;SDS011;37034;47.886;-3.904;2024-03-22T09:09:16;6.57;;;2.88;;
51006;SDS011;37034;47.886;-3.904;2024-03-22T09:11:42;6.78;;;2.25;;
51006;SDS011;37034;47.886;-3.904;2024-03-22T09:14:07;8.45;;;2.70;;
51006;SDS011;37034;47.886;-3.904;2024-03-22T09:16:33;6.50;;;2.88;;
51006;SDS011;37034;47.886;-3.904;2024-03-22T09:18:59;6.47;;;2.17;;
51006;SDS011;37034;47.886;-3.904;2024-03-22T09:21:25;8.75;;;3.33;;
51006;SDS011;37034;47.886;-3.904;2024-03-22T09:23:50;7.50;;;2.47;;
51006;SDS011;37034;47.886;-3.904;2024-03-22T09:26:16;8.77;;;2.67;;
51006;SDS011;37034;47.886;-3.904;2024-03-22T09:28:41;10.03;;;2.10;;
51006;SDS011;37034;47.886;-3.904;2024-03-22T09:31:07;3.93;;;1.63;;
51006;SDS011;37034;47.886;-3.904;2024-03-22T09:33:33;4.43;;;1.45;;
51006;SDS011;37034;47.886;-3.904;2024-03-22T09:35:59;9.00;;;1.80;;
51006;SDS011;37034;47.886;-3.904;2024-03-22T09:38:25;4.88;;;1.65;;
51006;SDS011;37034;47.886;-3.904;2024-03-22T09:40:51;6.70;;;1.90;;
51006;SDS011;37034;47.886;-3.904;2024-03-22T09:43:19;5.90;;;1.65;;
51006;SDS011;37034;47.886;-3.904;2024-03-22T09:48:15;4.63;;;1.30;;
51006;SDS011;37034;47.886;-3.904;2024-03-22T09:50:43;5.18;;;1.38;;
51006;SDS011;37034;47.886;-3.904;2024-03-22T09:53:11;4.97;;;1.15;;
51006;SDS011;37034;47.886;-3.904;2024-03-22T09:55:38;4.18;;;1.30;;
51006;SDS011;37034;47.886;-3.904;2024-03-22T09:58:08;4.63;;;1.75;;
51006;SDS011;37034;47.886;-3.904;2024-03-22T10:00:35;5.00;;;1.27;;
51006;SDS011;37034;47.886;-3.904;2024-03-22T10:03:01;4.53;;;1.58;;
51006;SDS011;37034;47.886;-3.904;2024-03-22T10:05:28;6.00;;;1.70;;
51006;SDS011;37034;47.886;-3.904;2024-03-22T10:07:54;4.20;;;1.57;;
51006;SDS011;37034;47.886;-3.904;2024-03-22T10:10:20;6.35;;;1.90;;
51006;SDS011;37034;47.886;-3.904;2024-03-22T10:12:46;5.03;;;1.63;;
51006;SDS011;37034;47.886;-3.904;2024-03-22T10:15:12;4.85;;;1.90;;
51006;SDS011;37034;47.886;-3.904;2024-03-22T10:17:39;5.47;;;1.58;;
51006;SDS011;37034;47.886;-3.904;2024-03-22T10:20:05;4.70;;;1.40;;
51006;SDS011;37034;47.886;-3.904;2024-03-22T10:22:43;5.15;;;1.67;;
51006;SDS011;37034;47.886;-3.904;2024-03-22T10:25:13;10.02;;;2.00;;
51006;SDS011;37034;47.886;-3.904;2024-03-22T10:27:42;6.17;;;1.30;;
51006;SDS011;37034;47.886;-3.904;2024-03-22T10:30:08;7.30;;;1.83;;
51006;SDS011;37034;47.886;-3.904;2024-03-22T10:32:37;4.15;;;1.20;;
51006;SDS011;37034;47.886;-3.904;2024-03-22T10:35:03;4.85;;;1.67;;
51006;SDS011;37034;47.886;-3.904;2024-03-22T10:37:31;5.88;;;1.77;;
51006;SDS011;37034;47.886;-3.904;2024-03-22T10:40:03;11.55;;;1.77;;
51006;SDS011;37034;47.886;-3.904;2024-03-22T10:42:36;8.07;;;1.42;;
51006;SDS011;37034;47.886;-3.904;2024-03-22T10:45:02;13.00;;;1.85;;
51006;SDS011;37034;47.886;-3.904;2024-03-22T10:47:29;3.58;;;1.40;;
51006;SDS011;37034;47.886;-3.904;2024-03-22T10:50:01;4.32;;;1.38;;
51006;SDS011;37034;47.886;-3.904;2024-03-22T10:52:56;4.65;;;1.20;;
51006;SDS011;37034;47.886;-3.904;2024-03-22T10:55:29;6.50;;;1.58;;
51006;SDS011;37034;47.886;-3.904;2024-03-22T10:57:57;6.80;;;1.27;;
51006;SDS011;37034;47.886;-3.904;2024-03-22T11:00:30;4.85;;;1.42;;
51006;SDS011;37034;47.886;-3.904;2024-03-22T11:03:03;6.38;;;1.50;;
51006;SDS011;37034;47.886;-3.904;2024-03-22T11:05:29;5.20;;;1.20;;
51006;SDS011;37034;47.886;-3.904;2024-03-22T11:08:01;3.10;;;1.25;;
51006;SDS011;37034;47.886;-3.904;2024-03-22T11:10:30;6.35;;;1.20;;
51006;SDS011;37034;47.886;-3.904;2024-03-22T11:13:02;6.00;;;1.13;;
51006;SDS011;37034;47.886;-3.904;2024-03-22T11:15:29;4.00;;;1.20;;
51006;SDS011;37034;47.886;-3.904;2024-03-22T11:17:55;9.10;;;1.85;;
51006;SDS011;37034;47.886;-3.904;2024-03-22T11:20:24;6.22;;;1.05;;
51006;SDS011;37034;47.886;-3.904;2024-03-22T11:22:51;4.22;;;1.30;;
51006;SDS011;37034;47.886;-3.904;2024-03-22T11:25:17;5.63;;;1.60;;
51006;SDS011;37034;47.886;-3.904;2024-03-22T11:27:44;9.70;;;1.45;;
51006;SDS011;37034;47.886;-3.904;2024-03-22T11:30:10;7.20;;;1.23;;
51006;SDS011;37034;47.886;-3.904;2024-03-22T11:32:36;4.47;;;1.20;;
51006;SDS011;37034;47.886;-3.904;2024-03-22T11:35:10;6.13;;;1.35;;
51006;SDS011;37034;47.886;-3.904;2024-03-22T11:37:55;5.53;;;1.50;;
51006;SDS011;37034;47.886;-3.904;2024-03-22T11:40:23;5.72;;;1.23;;
51006;SDS011;37034;47.886;-3.904;2024-03-22T11:43:04;5.65;;;1.50;;
51006;SDS011;37034;47.886;-3.904;2024-03-22T11:45:30;5.32;;;1.33;;
51006;SDS011;37034;47.886;-3.904;2024-03-22T11:48:01;5.70;;;1.48;;
51006;SDS011;37034;47.886;-3.904;2024-03-22T11:50:27;6.00;;;1.70;;
51006;SDS011;37034;47.886;-3.904;2024-03-22T11:52:53;4.80;;;1.73;;
51006;SDS011;37034;47.886;-3.904;2024-03-22T11:55:19;7.15;;;2.08;;
51006;SDS011;37034;47.886;-3.904;2024-03-22T11:57:48;11.85;;;2.20;;
51006;SDS011;37034;47.886;-3.904;2024-03-22T12:00:14;5.18;;;1.48;;
51006;SDS011;37034;47.886;-3.904;2024-03-22T12:02:42;6.88;;;1.92;;
51006;SDS011;37034;47.886;-3.904;2024-03-22T12:05:09;7.82;;;2.05;;
51006;SDS011;37034;47.886;-3.904;2024-03-22T12:07:35;5.65;;;1.60;;
51006;SDS011;37034;47.886;-3.904;2024-03-22T12:10:01;10.63;;;2.25;;
51006;SDS011;37034;47.886;-3.904;2024-03-22T12:12:28;6.90;;;1.92;;
51006;SDS011;37034;47.886;-3.904;2024-03-22T12:14:54;7.45;;;1.92;;
51006;SDS011;37034;47.886;-3.904;2024-03-22T12:17:20;6.88;;;1.70;;
51006;SDS011;37034;47.886;-3.904;2024-03-22T12:19:45;4.77;;;1.80;;
51006;SDS011;37034;47.886;-3.904;2024-03-22T12:24:38;4.60;;;1.52;;
51006;SDS011;37034;47.886;-3.904;2024-03-22T12:27:03;4.18;;;1.30;;
51006;SDS011;37034;47.886;-3.904;2024-03-22T12:29:32;3.70;;;1.02;;
51006;SDS011;37034;47.886;-3.904;2024-03-22T12:31:58;5.90;;;1.20;;
51006;SDS011;37034;47.886;-3.904;2024-03-22T12:34:26;6.68;;;1.95;;
51006;SDS011;37034;47.886;-3.904;2024-03-22T12:36:54;9.55;;;2.20;;
51006;SDS011;37034;47.886;-3.904;2024-03-22T12:39:20;8.00;;;2.30;;
51006;SDS011;37034;47.886;-3.904;2024-03-22T12:41:46;6.30;;;2.33;;
51006;SDS011;37034;47.886;-3.904;2024-03-22T12:44:11;4.90;;;1.98;;
51006;SDS011;37034;47.886;-3.904;2024-03-22T12:46:37;6.97;;;2.13;;
51006;SDS011;37034;47.886;-3.904;2024-03-22T12:49:03;7.72;;;2.50;;
51006;SDS011;37034;47.886;-3.904;2024-03-22T12:51:29;5.72;;;2.10;;
51006;SDS011;37034;47.886;-3.904;2024-03-22T12:53:55;4.40;;;2.00;;
51006;SDS011;37034;47.886;-3.904;2024-03-22T12:56:20;5.22;;;2.33;;
51006;SDS011;37034;47.886;-3.904;2024-03-22T12:58:47;5.68;;;2.60;;
51006;SDS011;37034;47.886;-3.904;2024-03-22T13:01:13;6.78;;;2.42;;
51006;SDS011;37034;47.886;-3.904;2024-03-22T13:03:39;7.60;;;3.35;;
51006;SDS011;37034;47.886;-3.904;2024-03-22T13:06:04;9.43;;;2.83;;
51006;SDS011;37034;47.886;-3.904;2024-03-22T13:08:33;7.80;;;2.90;;
51006;SDS011;37034;47.886;-3.904;2024-03-22T13:10:59;7.00;;;3.20;;
51006;SDS011;37034;47.886;-3.904;2024-03-22T13:13:24;11.53;;;3.07;;
51006;SDS011;37034;47.886;-3.904;2024-03-22T13:15:50;10.07;;;2.75;;
51006;SDS011;37034;47.886;-3.904;2024-03-22T13:18:16;6.65;;;2.38;;
51006;SDS011;37034;47.886;-3.904;2024-03-22T13:20:42;10.63;;;3.75;;
51006;SDS011;37034;47.886;-3.904;2024-03-22T13:23:07;8.88;;;2.80;;
51006;SDS011;37034;47.886;-3.904;2024-03-22T13:25:34;10.47;;;2.93;;
51006;SDS011;37034;47.886;-3.904;2024-03-22T13:28:02;8.10;;;2.45;;
51006;SDS011;37034;47.886;-3.904;2024-03-22T13:30:31;7.40;;;2.22;;
51006;SDS011;37034;47.886;-3.904;2024-03-22T13:32:57;7.97;;;2.28;;
51006;SDS011;37034;47.886;-3.904;2024-03-22T13:35:22;7.82;;;2.65;;
51006;SDS011;37034;47.886;-3.904;2024-03-22T13:37:48;7.10;;;2.55;;
51006;SDS011;37034;47.886;-3.904;2024-03-22T13:40:14;9.68;;;2.85;;
51006;SDS011;37034;47.886;-3.904;2024-03-22T13:42:41;7.38;;;2.63;;
51006;SDS011;37034;47.886;-3.904;2024-03-22T13:45:06;6.07;;;2.03;;
51006;SDS011;37034;47.886;-3.904;2024-03-22T13:47:32;7.82;;;2.10;;
51006;SDS011;37034;47.886;-3.904;2024-03-22T13:49:58;6.18;;;2.15;;
51006;SDS011;37034;47.886;-3.904;2024-03-22T13:52:23;8.05;;;2.35;;
51006;SDS011;37034;47.886;-3.904;2024-03-22T13:54:50;7.35;;;2.13;;
51006;SDS011;37034;47.886;-3.904;2024-03-22T13:57:16;8.18;;;2.67;;
51006;SDS011;37034;47.886;-3.904;2024-03-22T13:59:42;7.93;;;2.90;;
51006;SDS011;37034;47.886;-3.904;2024-03-22T14:02:09;7.75;;;2.90;;
51006;SDS011;37034;47.886;-3.904;2024-03-22T14:04:35;11.13;;;2.87;;
51006;SDS011;37034;47.886;-3.904;2024-03-22T14:07:01;8.98;;;2.80;;
51006;SDS011;37034;47.886;-3.904;2024-03-22T14:09:30;8.73;;;2.60;;
51006;SDS011;37034;47.886;-3.904;2024-03-22T14:12:01;6.50;;;2.60;;
51006;SDS011;37034;47.886;-3.904;2024-03-22T14:14:27;8.93;;;3.00;;
51006;SDS011;37034;47.886;-3.904;2024-03-22T14:16:53;13.30;;;3.78;;
51006;SDS011;37034;47.886;-3.904;2024-03-22T14:21:45;11.77;;;3.65;;
51006;SDS011;37034;47.886;-3.904;2024-03-22T14:24:11;8.98;;;3.42;;
51006;SDS011;37034;47.886;-3.904;2024-03-22T14:26:38;8.52;;;3.13;;
51006;SDS011;37034;47.886;-3.904;2024-03-22T14:29:07;7.78;;;3.72;;
51006;SDS011;37034;47.886;-3.904;2024-03-22T14:31:37;12.27;;;4.05;;
51006;SDS011;37034;47.886;-3.904;2024-03-22T14:34:04;13.07;;;4.60;;
51006;SDS011;37034;47.886;-3.904;2024-03-22T14:36:31;6.70;;;3.35;;
51006;SDS011;37034;47.886;-3.904;2024-03-22T14:38:58;9.82;;;3.95;;